createdAt,value
2022-08-08T00:01:08.453Z,21.36
2022-08-08T00:03:48.009Z,21.30
2022-08-08T00:06:28.442Z,21.23
2022-08-08T00:09:07.844Z,21.13
2022-08-08T00:11:46.641Z,21.03
2022-08-08T00:14:48.642Z,20.93
2022-08-08T00:17:23.304Z,20.84
2022-08-08T00:19:55.237Z,20.76
2022-08-08T00:22:28.843Z,20.71
2022-08-08T00:25:02.326Z,20.59
2022-08-08T00:27:34.921Z,20.66
2022-08-08T00:30:06.401Z,20.64
2022-08-08T00:32:45.388Z,20.58
2022-08-08T00:35:26.832Z,20.56
2022-08-08T00:38:04.573Z,20.51
2022-08-08T00:41:14.948Z,20.40
2022-08-08T00:44:18.896Z,20.34
2022-08-08T00:47:23.788Z,20.31
2022-08-08T00:50:15.822Z,20.25
2022-08-08T00:52:48.475Z,20.22
2022-08-08T00:55:35.945Z,20.19
2022-08-08T00:58:39.101Z,20.15
2022-08-08T01:01:19.554Z,20.05
2022-08-08T01:04:29.788Z,20.06
2022-08-08T01:07:55.927Z,20.01
2022-08-08T01:11:07.863Z,19.93
2022-08-08T01:14:54.119Z,19.89
2022-08-08T01:17:54.152Z,19.85
2022-08-08T01:20:57.914Z,19.81
2022-08-08T01:24:13.724Z,19.75
2022-08-08T01:27:16.179Z,19.66
2022-08-08T01:30:22.247Z,19.64
2022-08-08T01:33:33.732Z,19.48
2022-08-08T01:36:51.086Z,19.44
2022-08-08T01:39:27.639Z,19.42
2022-08-08T01:42:01.019Z,19.41
2022-08-08T01:44:39.654Z,19.35
2022-08-08T01:48:14.771Z,19.33
2022-08-08T01:50:19.967Z,19.40
2022-08-08T01:55:17.674Z,19.39
2022-08-08T01:56:29.674Z,19.37
2022-08-08T01:58:46.607Z,19.35
2022-08-08T02:01:20.688Z,19.32
2022-08-08T02:04:01.843Z,19.22
2022-08-08T02:06:43.641Z,19.26
2022-08-08T02:10:01.814Z,19.20
2022-08-08T02:12:18.415Z,19.17
2022-08-08T02:14:58.973Z,19.12
2022-08-08T02:17:36.087Z,19.01
2022-08-08T02:20:16.083Z,18.91
2022-08-08T02:23:08.848Z,18.86
2022-08-08T02:25:49.035Z,18.80
2022-08-08T02:28:21.002Z,18.77
2022-08-08T02:31:07.176Z,18.81
2022-08-08T02:34:00.359Z,18.84
2022-08-08T02:36:41.448Z,18.85
2022-08-08T02:39:41.137Z,18.83
2022-08-08T02:44:38.658Z,18.83
2022-08-08T02:45:58.741Z,18.86
2022-08-08T02:48:59.150Z,18.86
2022-08-08T02:51:59.142Z,18.86
2022-08-08T02:54:43.113Z,18.75
2022-08-08T02:57:50.714Z,18.64
2022-08-08T03:00:31.700Z,18.45
2022-08-08T03:03:46.680Z,18.58
2022-08-08T03:07:01.922Z,18.53
2022-08-08T03:09:59.042Z,18.53
2022-08-08T03:13:01.448Z,18.48
2022-08-08T03:16:05.273Z,18.47
2022-08-08T03:18:39.688Z,18.44
2022-08-08T03:21:10.190Z,18.41
2022-08-08T03:23:57.539Z,18.40
2022-08-08T03:26:32.519Z,18.33
2022-08-08T03:29:15.010Z,18.28
2022-08-08T03:32:08.489Z,18.24
2022-08-08T03:34:37.736Z,18.21
2022-08-08T03:37:59.113Z,18.23
2022-08-08T03:40:02.297Z,18.11
2022-08-08T03:42:31.921Z,18.20
2022-08-08T03:44:59.898Z,18.15
2022-08-08T03:47:45.312Z,18.12
2022-08-08T03:50:20.030Z,18.11
2022-08-08T03:52:48.647Z,18.12
2022-08-08T03:55:19.952Z,18.12
2022-08-08T03:58:35.645Z,18.11
2022-08-08T04:01:02.089Z,18.13
2022-08-08T04:03:57.002Z,18.14
2022-08-08T04:06:29.413Z,18.16
2022-08-08T04:08:58.300Z,18.11
2022-08-08T04:11:57.659Z,18.14
2022-08-08T04:14:34.945Z,18.14
2022-08-08T04:17:06.904Z,18.12
2022-08-08T04:19:43.717Z,18.09
2022-08-08T04:22:11.606Z,18.04
2022-08-08T04:24:44.431Z,18.00
2022-08-08T04:28:03.646Z,17.98
2022-08-08T04:30:17.687Z,17.97
2022-08-08T04:32:47.888Z,17.94
2022-08-08T04:35:16.362Z,17.90
2022-08-08T04:37:44.759Z,17.86
2022-08-08T04:40:13.256Z,17.88
2022-08-08T04:42:46.725Z,17.90
2022-08-08T04:45:25.460Z,17.89
2022-08-08T04:47:53.745Z,17.85
2022-08-08T04:50:24.187Z,17.87
2022-08-08T04:53:00.451Z,17.84
2022-08-08T04:55:47.191Z,17.77
2022-08-08T04:58:18.132Z,17.74
2022-08-08T05:00:47.585Z,17.75
2022-08-08T05:03:18.950Z,17.75
2022-08-08T05:06:12.575Z,17.76
2022-08-08T05:08:51.685Z,17.74
2022-08-08T05:11:22.689Z,17.72
2022-08-08T05:13:57.840Z,17.70
2022-08-08T05:16:51.674Z,17.69
2022-08-08T05:20:04.342Z,17.68
2022-08-08T05:22:05.325Z,17.70
2022-08-08T05:24:34.878Z,17.72
2022-08-08T05:27:05.720Z,17.75
2022-08-08T05:29:35.801Z,17.77
2022-08-08T05:32:07.451Z,17.78
2022-08-08T05:34:36.719Z,17.75
2022-08-08T05:37:07.422Z,17.84
2022-08-08T05:39:52.734Z,17.85
2022-08-08T05:42:25.844Z,17.92
2022-08-08T05:44:55.365Z,17.95
2022-08-08T05:47:41.648Z,17.99
2022-08-08T05:50:16.569Z,18.05
2022-08-08T05:52:45.601Z,18.11
2022-08-08T05:55:14.221Z,18.17
2022-08-08T05:58:04.092Z,18.25
2022-08-08T06:00:34.058Z,18.28
2022-08-08T06:03:17.522Z,18.33
2022-08-08T06:05:56.784Z,18.43
2022-08-08T06:08:34.957Z,18.50
2022-08-08T06:11:03.279Z,18.59
2022-08-08T06:13:35.677Z,18.69
2022-08-08T06:16:13.470Z,18.76
2022-08-08T06:18:42.925Z,18.80
2022-08-08T06:21:28.411Z,18.84
2022-08-08T06:24:03.651Z,18.89
2022-08-08T06:26:45.423Z,18.93
2022-08-08T06:29:48.627Z,19.02
2022-08-08T06:32:15.317Z,19.10
2022-08-08T06:34:52.663Z,19.20
2022-08-08T06:37:39.625Z,19.25
2022-08-08T06:40:14.292Z,19.39
2022-08-08T06:42:54.845Z,19.49
2022-08-08T06:45:23.220Z,19.57
2022-08-08T06:48:01.410Z,19.69
2022-08-08T06:50:33.480Z,19.80
2022-08-08T06:53:10.027Z,19.93
2022-08-08T06:55:43.186Z,20.02
2022-08-08T06:58:11.652Z,20.10
2022-08-08T07:00:40.985Z,20.15
2022-08-08T07:03:19.579Z,20.21
2022-08-08T07:06:02.047Z,20.32
2022-08-08T07:08:31.921Z,20.41
2022-08-08T07:11:03.573Z,20.50
2022-08-08T07:13:34.490Z,20.59
2022-08-08T07:16:10.588Z,20.71
2022-08-08T07:18:49.193Z,20.82
2022-08-08T07:21:20.619Z,20.95
2022-08-08T07:23:57.452Z,21.07
2022-08-08T07:26:35.410Z,21.20
2022-08-08T07:29:05.952Z,21.28
2022-08-08T07:31:36.876Z,21.38
2022-08-08T07:34:08.857Z,21.49
2022-08-08T07:36:48.109Z,21.59
2022-08-08T07:39:29.398Z,21.69
2022-08-08T07:42:03.655Z,21.76
2022-08-08T07:44:37.749Z,21.86
2022-08-08T07:47:08.872Z,21.96
2022-08-08T07:49:40.105Z,22.03
2022-08-08T07:52:08.472Z,22.11
2022-08-08T07:54:44.975Z,22.18
2022-08-08T07:57:22.564Z,22.28
2022-08-08T07:59:53.397Z,22.36
2022-08-08T08:02:34.636Z,22.44
2022-08-08T08:05:14.795Z,22.51
2022-08-08T08:07:45.692Z,22.57
2022-08-08T08:10:14.236Z,22.72
2022-08-08T08:12:43.825Z,22.81
2022-08-08T08:15:15.213Z,22.90
2022-08-08T08:17:48.967Z,22.97
2022-08-08T08:20:19.134Z,23.03
2022-08-08T08:22:48.708Z,23.12
2022-08-08T08:25:19.384Z,23.17
2022-08-08T08:28:09.426Z,23.24
2022-08-08T08:30:38.856Z,23.29
2022-08-08T08:33:11.021Z,23.38
2022-08-08T08:36:20.195Z,23.46
2022-08-08T08:38:29.042Z,23.53
2022-08-08T08:40:57.023Z,23.60
2022-08-08T08:43:26.771Z,23.67
2022-08-08T08:46:03.581Z,23.60
2022-08-08T08:48:33.741Z,23.79
2022-08-08T08:51:03.834Z,23.82
2022-08-08T08:53:55.910Z,23.90
2022-08-08T08:56:24.173Z,23.62
2022-08-08T08:58:52.937Z,24.07
2022-08-08T09:01:22.103Z,24.13
2022-08-08T09:03:51.734Z,24.19
2022-08-08T09:06:28.205Z,24.25
2022-08-08T09:09:02.840Z,24.36
2022-08-08T09:11:33.044Z,24.44
2022-08-08T09:14:01.921Z,24.53
2022-08-08T09:16:32.867Z,24.66
2022-08-08T09:19:00.906Z,24.78
2022-08-08T09:21:57.376Z,24.88
2022-08-08T09:24:19.718Z,25.01
2022-08-08T09:26:51.462Z,25.07
2022-08-08T09:29:24.602Z,25.10
2022-08-08T09:31:57.582Z,25.18
2022-08-08T09:34:32.390Z,25.24
2022-08-08T09:37:58.129Z,25.33
2022-08-08T09:40:01.622Z,25.40
2022-08-08T09:42:34.536Z,25.50
2022-08-08T09:45:15.769Z,25.58
2022-08-08T09:48:10.028Z,25.66
2022-08-08T09:50:44.088Z,25.77
2022-08-08T09:53:32.873Z,25.87
2022-08-08T09:56:09.617Z,25.97
2022-08-08T09:58:48.445Z,26.05
2022-08-08T10:01:59.378Z,26.15
2022-08-08T10:04:08.653Z,26.25
2022-08-08T10:06:38.296Z,26.32
2022-08-08T10:09:08.567Z,26.40
2022-08-08T10:12:26.895Z,26.50
2022-08-08T10:14:38.201Z,26.60
2022-08-08T10:17:38.746Z,26.68
2022-08-08T10:19:58.599Z,26.77
2022-08-08T10:22:28.707Z,26.84
2022-08-08T10:25:05.186Z,26.89
2022-08-08T10:27:41.755Z,26.96
2022-08-08T10:30:16.766Z,27.05
2022-08-08T10:33:00.513Z,27.13
2022-08-08T10:36:20.459Z,27.25
2022-08-08T10:38:17.326Z,27.36
2022-08-08T10:40:46.796Z,27.37
2022-08-08T10:43:14.736Z,27.59
2022-08-08T10:45:56.802Z,27.68
2022-08-08T10:48:35.915Z,27.80
2022-08-08T10:51:13.175Z,27.93
2022-08-08T10:53:58.300Z,27.92
2022-08-08T10:56:32.071Z,28.08
2022-08-08T10:59:00.630Z,28.18
2022-08-08T11:01:29.630Z,28.30
2022-08-08T11:04:02.519Z,28.46
2022-08-08T11:06:34.491Z,28.59
2022-08-08T11:09:04.045Z,28.68
2022-08-08T11:12:04.907Z,28.82
2022-08-08T11:14:34.625Z,28.92
2022-08-08T11:17:02.834Z,29.02
2022-08-08T11:19:31.918Z,29.09
2022-08-08T11:22:04.015Z,29.16
2022-08-08T11:24:33.474Z,29.24
2022-08-08T11:27:19.384Z,29.46
2022-08-08T11:29:58.276Z,29.66
2022-08-08T11:32:38.998Z,29.42
2022-08-08T11:35:24.424Z,29.32
2022-08-08T11:38:35.724Z,29.57
2022-08-08T11:40:51.524Z,30.05
2022-08-08T11:43:24.348Z,30.58
2022-08-08T11:46:10.015Z,31.04
2022-08-08T11:48:41.521Z,31.57
2022-08-08T11:51:38.411Z,31.98
2022-08-08T11:54:01.228Z,32.37
2022-08-08T11:56:34.451Z,32.75
2022-08-08T11:59:10.938Z,33.07
2022-08-08T12:01:39.058Z,33.29
2022-08-08T12:04:07.563Z,33.63
2022-08-08T12:06:35.566Z,33.79
2022-08-08T12:09:08.565Z,34.02
2022-08-08T12:11:39.667Z,34.24
2022-08-08T12:14:11.040Z,34.46
2022-08-08T12:16:53.347Z,34.67
2022-08-08T12:19:21.914Z,34.76
2022-08-08T12:21:59.150Z,34.93
2022-08-08T12:24:29.905Z,35.18
2022-08-08T12:26:58.580Z,35.37
2022-08-08T12:29:40.757Z,35.33
2022-08-08T12:32:13.310Z,35.32
2022-08-08T12:34:48.529Z,35.39
2022-08-08T12:37:20.945Z,35.62
2022-08-08T12:40:00.722Z,35.81
2022-08-08T12:42:33.535Z,36.01
2022-08-08T12:45:20.066Z,36.27
2022-08-08T12:48:09.821Z,36.62
2022-08-08T12:50:48.012Z,36.81
2022-08-08T12:53:30.167Z,36.80
2022-08-08T12:56:08.749Z,36.87
2022-08-08T12:58:48.968Z,37.05
2022-08-08T13:01:16.983Z,37.26
2022-08-08T13:03:54.331Z,37.37
2022-08-08T13:06:22.816Z,37.30
2022-08-08T13:08:56.370Z,37.29
2022-08-08T13:11:28.632Z,37.42
2022-08-08T13:14:15.518Z,37.69
2022-08-08T13:16:43.835Z,37.96
2022-08-08T13:19:20.484Z,37.90
2022-08-08T13:21:53.641Z,37.78
2022-08-08T13:24:42.028Z,37.91
2022-08-08T13:27:12.298Z,38.03
2022-08-08T13:29:49.501Z,38.25
2022-08-08T13:32:18.421Z,38.47
2022-08-08T13:34:52.658Z,38.71
2022-08-08T13:37:27.960Z,38.91
2022-08-08T13:40:10.182Z,38.82
2022-08-08T13:42:38.151Z,38.55
2022-08-08T13:45:07.565Z,38.20
2022-08-08T13:47:40.215Z,38.11
2022-08-08T13:50:39.780Z,38.06
2022-08-08T13:53:22.723Z,38.13
2022-08-08T13:55:58.968Z,38.32
2022-08-08T13:58:28.863Z,38.30
2022-08-08T14:00:57.280Z,38.23
2022-08-08T14:03:53.818Z,38.14
2022-08-08T14:06:32.279Z,38.11
2022-08-08T14:09:25.279Z,38.36
2022-08-08T14:11:50.354Z,38.72
2022-08-08T14:14:21.134Z,38.96
2022-08-08T14:16:55.262Z,39.30
2022-08-08T14:19:57.676Z,39.41
2022-08-08T14:22:23.683Z,39.58
2022-08-08T14:24:54.035Z,39.57
2022-08-08T14:27:27.227Z,39.62
2022-08-08T14:29:58.568Z,39.51
2022-08-08T14:32:30.082Z,39.30
2022-08-08T14:35:04.423Z,39.14
2022-08-08T14:37:43.055Z,39.17
2022-08-08T14:40:26.428Z,39.36
2022-08-08T14:42:56.928Z,39.23
2022-08-08T14:45:47.087Z,38.93
2022-08-08T14:48:34.053Z,39.05
2022-08-08T14:51:06.855Z,38.97
2022-08-08T14:53:55.859Z,38.77
2022-08-08T14:56:25.471Z,38.62
2022-08-08T14:58:54.593Z,38.74
2022-08-08T15:01:37.449Z,38.95
2022-08-08T15:04:10.430Z,39.16
2022-08-08T15:06:39.120Z,39.45
2022-08-08T15:09:11.722Z,39.58
2022-08-08T15:11:46.571Z,39.52
2022-08-08T15:14:26.466Z,39.48
2022-08-08T15:16:55.090Z,39.61
2022-08-08T15:19:27.684Z,39.57
2022-08-08T15:21:57.957Z,39.57
2022-08-08T15:24:31.339Z,39.50
2022-08-08T15:27:11.957Z,39.50
2022-08-08T15:29:48.276Z,40.07
2022-08-08T15:32:22.638Z,40.43
2022-08-08T15:34:52.459Z,40.56
2022-08-08T15:37:20.866Z,40.51
2022-08-08T15:39:51.695Z,40.43
2022-08-08T15:42:33.012Z,40.27
2022-08-08T15:45:01.395Z,39.98
2022-08-08T15:47:31.435Z,39.65
2022-08-08T15:50:00.336Z,39.75
2022-08-08T15:52:28.509Z,39.72
2022-08-08T15:54:58.195Z,39.94
2022-08-08T15:57:26.129Z,40.32
2022-08-08T16:00:06.225Z,40.70
2022-08-08T16:02:50.687Z,41.16
2022-08-08T16:05:21.107Z,41.46
2022-08-08T16:07:52.782Z,41.57
2022-08-08T16:13:10.122Z,41.37
2022-08-08T16:13:28.419Z,41.34
2022-08-08T16:16:08.950Z,41.34
2022-08-08T16:18:40.805Z,41.53
2022-08-08T16:21:26.417Z,41.75
2022-08-08T16:23:56.242Z,42.07
2022-08-08T16:26:33.639Z,42.30
2022-08-08T16:29:07.810Z,42.45
2022-08-08T16:31:37.361Z,42.52
2022-08-08T16:34:05.778Z,42.70
2022-08-08T16:36:34.359Z,42.94
2022-08-08T16:39:09.971Z,43.08
2022-08-08T16:41:50.257Z,43.15
2022-08-08T16:44:27.753Z,43.13
2022-08-08T16:47:16.504Z,43.24
2022-08-08T16:49:44.578Z,42.99
2022-08-08T16:55:03.618Z,42.91
2022-08-08T16:55:33.898Z,42.59
2022-08-08T16:58:15.519Z,42.33
2022-08-08T17:00:42.876Z,41.98
2022-08-08T17:03:24.324Z,42.15
2022-08-08T17:05:54.192Z,42.34
2022-08-08T17:08:23.562Z,42.19
2022-08-08T17:10:57.707Z,42.02
2022-08-08T17:13:50.290Z,41.79
2022-08-08T17:16:17.254Z,41.91
2022-08-08T17:18:45.705Z,42.04
2022-08-08T17:21:13.848Z,42.06
2022-08-08T17:24:00.803Z,42.09
2022-08-08T17:26:30.067Z,42.14
2022-08-08T17:29:04.448Z,41.93
2022-08-08T17:31:44.387Z,41.45
2022-08-08T17:34:53.764Z,40.15
2022-08-08T17:37:03.837Z,38.66
2022-08-08T17:40:03.781Z,37.10
2022-08-08T17:42:22.498Z,35.75
2022-08-08T17:44:52.524Z,34.76
2022-08-08T17:47:24.049Z,33.95
2022-08-08T17:50:06.808Z,33.20
2022-08-08T17:52:35.325Z,32.69
2022-08-08T17:56:06.232Z,32.24
2022-08-08T17:57:53.719Z,31.82
2022-08-08T18:00:30.674Z,31.29
2022-08-08T18:03:08.759Z,31.32
2022-08-08T18:05:48.191Z,31.11
2022-08-08T18:08:41.389Z,30.97
2022-08-08T18:11:15.517Z,30.80
2022-08-08T18:13:45.900Z,30.54
2022-08-08T18:16:20.473Z,30.25
2022-08-08T18:18:57.310Z,29.90
2022-08-08T18:22:00.334Z,29.68
2022-08-08T18:24:18.754Z,29.40
2022-08-08T18:26:54.652Z,29.26
2022-08-08T18:29:33.814Z,29.20
2022-08-08T18:32:04.686Z,29.41
2022-08-08T18:34:33.741Z,29.61
2022-08-08T18:37:04.960Z,29.60
2022-08-08T18:39:36.782Z,29.58
2022-08-08T18:42:10.243Z,29.45
2022-08-08T18:44:42.385Z,29.25
2022-08-08T18:47:26.119Z,29.07
2022-08-08T18:49:58.402Z,28.93
2022-08-08T18:52:27.793Z,28.80
2022-08-08T18:55:10.933Z,28.67
2022-08-08T18:57:41.800Z,28.54
2022-08-08T19:00:16.923Z,28.38
2022-08-08T19:02:56.544Z,28.25
2022-08-08T19:05:32.104Z,28.14
2022-08-08T19:08:25.339Z,28.04
2022-08-08T19:10:59.067Z,27.92
2022-08-08T19:13:52.802Z,27.88
2022-08-08T19:16:19.060Z,27.78
2022-08-08T19:18:57.392Z,27.67
2022-08-08T19:21:33.069Z,27.58
2022-08-08T19:24:05.395Z,27.45
2022-08-08T19:26:35.830Z,27.33
2022-08-08T19:29:05.869Z,27.24
2022-08-08T19:31:35.222Z,27.12
2022-08-08T19:34:35.883Z,26.88
2022-08-08T19:36:55.194Z,26.67
2022-08-08T19:39:26.533Z,26.53
2022-08-08T19:42:03.119Z,26.41
2022-08-08T19:44:42.643Z,26.32
2022-08-08T19:47:12.208Z,26.23
2022-08-08T19:49:43.351Z,26.09
2022-08-08T19:52:34.822Z,26.04
2022-08-08T19:55:06.539Z,25.97
2022-08-08T19:57:35.609Z,25.90
2022-08-08T20:00:11.351Z,25.83
2022-08-08T20:02:53.998Z,25.76
2022-08-08T20:06:14.361Z,25.66
2022-08-08T20:08:29.340Z,25.61
2022-08-08T20:10:59.770Z,25.61
2022-08-08T20:14:32.386Z,25.61
2022-08-08T20:16:15.711Z,25.60
2022-08-08T20:18:52.643Z,25.57
2022-08-08T20:21:25.789Z,25.55
2022-08-08T20:23:57.651Z,25.50
2022-08-08T20:26:27.463Z,25.42
2022-08-08T20:28:57.642Z,25.42
2022-08-08T20:31:25.578Z,25.36
2022-08-08T20:34:28.643Z,25.27
2022-08-08T20:37:00.797Z,25.20
2022-08-08T20:39:39.710Z,25.14
2022-08-08T20:42:19.686Z,25.06
2022-08-08T20:44:48.506Z,25.02
2022-08-08T20:47:23.456Z,25.00
2022-08-08T20:49:55.892Z,24.99
2022-08-08T20:52:28.510Z,25.01
2022-08-08T20:54:56.472Z,25.01
2022-08-08T20:57:25.411Z,25.01
2022-08-08T20:59:55.859Z,24.99
2022-08-08T21:02:25.788Z,24.99
2022-08-08T21:04:57.368Z,24.97
2022-08-08T21:08:33.286Z,24.92
2022-08-08T21:10:20.708Z,24.85
2022-08-08T21:12:54.124Z,24.77
2022-08-08T21:16:03.824Z,24.67
2022-08-08T21:18:11.593Z,24.60
2022-08-08T21:20:40.016Z,24.51
2022-08-08T21:23:13.231Z,24.45
2022-08-08T21:25:48.890Z,24.38
2022-08-08T21:28:33.452Z,24.32
2022-08-08T21:31:21.646Z,24.21
2022-08-08T21:33:51.394Z,24.13
2022-08-08T21:36:20.911Z,24.08
2022-08-08T21:38:57.745Z,24.01
2022-08-08T21:41:38.096Z,23.96
2022-08-08T21:44:11.253Z,23.91
2022-08-08T21:48:02.494Z,23.83
2022-08-08T21:49:30.136Z,23.75
2022-08-08T21:54:36.377Z,23.69
2022-08-08T21:54:58.191Z,23.61
2022-08-08T21:57:42.016Z,23.53
2022-08-08T22:00:14.697Z,23.48
2022-08-08T22:02:46.140Z,23.40
2022-08-08T22:05:14.584Z,23.39
2022-08-08T22:07:44.272Z,23.31
2022-08-08T22:10:32.026Z,23.30
2022-08-08T22:13:17.307Z,23.28
2022-08-08T22:15:58.781Z,23.25
2022-08-08T22:18:29.901Z,23.22
2022-08-08T22:21:01.380Z,23.09
2022-08-08T22:23:41.116Z,23.09
2022-08-08T22:26:29.514Z,23.06
2022-08-08T22:29:14.023Z,23.03
2022-08-08T22:31:58.364Z,23.00
2022-08-08T22:34:30.072Z,22.96
2022-08-08T22:36:58.021Z,22.90
2022-08-08T22:39:39.368Z,22.87
2022-08-08T22:42:23.929Z,22.86
2022-08-08T22:44:55.154Z,22.80
2022-08-08T22:47:23.020Z,22.78
2022-08-08T22:49:53.939Z,22.78
2022-08-08T22:52:33.598Z,22.73
2022-08-08T22:55:05.608Z,22.68
2022-08-08T22:57:44.091Z,22.66
2022-08-08T23:00:17.917Z,22.63
2022-08-08T23:02:50.399Z,22.63
2022-08-08T23:05:21.507Z,22.62
2022-08-08T23:07:57.471Z,22.62
2022-08-08T23:10:26.638Z,22.60
2022-08-08T23:12:56.339Z,22.50
2022-08-08T23:16:40.668Z,22.44
2022-08-08T23:18:12.557Z,22.37
2022-08-08T23:20:43.574Z,22.33
2022-08-08T23:23:12.180Z,22.29
2022-08-08T23:25:48.186Z,22.28
2022-08-08T23:28:19.124Z,22.22
2022-08-08T23:30:47.474Z,22.17
2022-08-08T23:33:19.160Z,22.16
2022-08-08T23:36:07.718Z,22.15
2022-08-08T23:38:43.981Z,22.15
2022-08-08T23:41:17.381Z,22.12
2022-08-08T23:43:56.361Z,22.11
2022-08-08T23:49:02.737Z,22.07
2022-08-08T23:49:15.274Z,22.05
2022-08-08T23:52:06.904Z,22.01
2022-08-08T23:54:43.555Z,21.97
2022-08-08T23:57:26.848Z,21.93
